Time;durP1;ratioP1;P1;durP2;ratioP2;P2;SDS_P1;SDS_P2;PMS_P1;PMS_P2;Temp;Humidity;BMP_temperature;BMP_pressure;BME280_temperature;BME280_humidity;BME280_pressure;Samples;Min_cycle;Max_cycle;Signal;HPM_P1;HPM_P2
2022/01/03 00:01:02;;;;;;;60.80;54.30;;;;;;;8.44;100.00;100357.63;4933301;29;20116;-84
2022/01/03 00:03:28;;;;;;;59.33;53.05;;;;;;;8.45;100.00;100351.63;4939252;28;20114;-84
2022/01/03 00:05:54;;;;;;;59.73;53.23;;;;;;;8.47;100.00;100357.56;4931088;29;20036;-84
2022/01/03 00:08:20;;;;;;;66.20;54.67;;;;;;;8.39;100.00;100359.44;4947166;28;20027;-85
2022/01/03 00:10:45;;;;;;;59.72;53.13;;;;;;;8.41;100.00;100348.25;4945278;29;20023;-85
2022/01/03 00:13:10;;;;;;;59.47;53.23;;;;;;;8.39;100.00;100344.91;4941433;29;20072;-85
2022/01/03 00:15:36;;;;;;;59.57;53.33;;;;;;;8.32;100.00;100345.94;4936097;29;20023;-85
2022/01/03 00:18:01;;;;;;;60.50;54.07;;;;;;;8.23;100.00;100323.94;4922062;29;20036;-84
2022/01/03 00:20:28;;;;;;;60.17;53.67;;;;;;;8.46;100.00;100325.97;4931535;29;20039;-85
2022/01/03 00:22:55;;;;;;;;;;;;;;;8.42;100.00;100329.44;4926688;29;20035;-85
2022/01/03 00:25:23;;;;;;;59.40;52.97;;;;;;;8.43;99.40;100320.91;4953688;29;19935;-85
2022/01/03 00:27:51;;;;;;;62.00;52.90;;;;;;;8.49;98.55;100330.16;4947684;29;20040;-84
2022/01/03 00:30:19;;;;;;;58.38;52.13;;;;;;;8.42;99.50;100324.31;4955706;29;20019;-85
2022/01/03 00:32:47;;;;;;;58.75;52.60;;;;;;;8.36;99.44;100321.91;4939859;29;20114;-84
2022/01/03 00:35:15;;;;;;;57.67;51.63;;;;;;;8.31;100.00;100326.31;4946992;28;20031;-85
2022/01/03 00:37:42;;;;;;;56.75;51.15;;;;;;;8.42;98.74;100302.97;4944069;29;20011;-85
2022/01/03 00:40:08;;;;;;;56.65;50.80;;;;;;;8.29;96.95;100313.53;4944041;29;20047;-84
2022/01/03 00:42:34;;;;;;;56.70;51.03;;;;;;;8.17;96.66;100286.50;4929504;29;20027;-84
2022/01/03 00:45:03;;;;;;;56.63;50.83;;;;;;;8.24;97.11;100299.16;4941732;29;20118;-84
2022/01/03 00:47:32;;;;;;;55.33;50.03;;;;;;;8.23;96.85;100303.44;4930861;29;20024;-83
2022/01/03 00:49:59;;;;;;;55.55;50.00;;;;;;;8.29;96.24;100305.03;4922642;29;20031;-83
2022/01/03 00:52:24;;;;;;;54.55;49.42;;;;;;;8.18;96.61;100295.03;4926707;29;20020;-84
2022/01/03 00:54:49;;;;;;;55.93;50.40;;;;;;;8.04;96.87;100287.72;4928086;29;20083;-86
2022/01/03 00:57:25;;;;;;;56.73;51.00;;;;;;;8.03;96.51;100301.38;4943925;29;20054;-85
2022/01/03 01:00:02;;;;;;;55.22;49.83;;;;;;;7.89;97.93;100275.28;4944041;29;20023;-85
2022/01/03 01:02:32;;;;;;;55.92;50.22;;;;;;;8.12;97.80;100295.19;4937390;29;20030;-86
2022/01/03 01:04:57;;;;;;;58.25;52.08;;;;;;;8.08;97.53;100279.06;4937159;29;20016;-86
2022/01/03 01:07:27;;;;;;;54.80;49.53;;;;;;;8.04;96.95;100290.25;4938019;29;20399;-84
2022/01/03 01:09:52;;;;;;;56.22;50.60;;;;;;;8.01;98.28;100287.78;4935671;29;20076;-84
2022/01/03 01:12:18;;;;;;;55.40;49.97;;;;;;;8.06;97.38;100291.06;4928094;29;20027;-84
2022/01/03 01:14:43;;;;;;;54.10;49.17;;;;;;;8.01;97.43;100292.91;4929943;29;20032;-84
2022/01/03 01:17:09;;;;;;;54.33;49.30;;;;;;;7.80;98.40;100277.19;4928520;29;20031;-84
2022/01/03 01:19:35;;;;;;;54.73;49.63;;;;;;;7.72;98.94;100276.53;4921305;29;20036;-84
2022/01/03 01:22:00;;;;;;;54.63;49.50;;;;;;;8.03;98.98;100295.44;4936473;29;20114;-85
2022/01/03 01:24:32;;;;;;;55.30;49.97;;;;;;;8.06;97.87;100291.06;4938931;29;20034;-85
2022/01/03 01:29:41;;;;;;;54.83;49.45;;;;;;;7.89;99.24;100282.97;4961577;29;20058;-85
2022/01/03 01:32:08;;;;;;;55.70;50.00;;;;;;;7.85;99.44;100297.56;4939846;29;20035;-86
2022/01/03 01:34:34;;;;;;;75.20;56.65;;;;;;;8.11;98.85;100324.25;4953976;23;20032;-84
2022/01/03 01:37:01;;;;;;;53.75;48.75;;;;;;;8.15;98.78;100321.56;4933646;29;20089;-84
2022/01/03 01:39:28;;;;;;;54.00;48.95;;;;;;;8.10;99.27;100333.66;4929050;29;20031;-85
2022/01/03 01:42:01;;;;;;;53.53;48.55;;;;;;;8.18;99.36;100334.31;4936385;28;20019;-87
2022/01/03 01:44:27;;;;;;;53.85;48.95;;;;;;;8.08;99.84;100330.31;4929589;29;20023;-86
2022/01/03 01:46:56;;;;;;;54.00;48.93;;;;;;;8.14;100.00;100335.28;4948649;29;20023;-83
2022/01/03 01:49:25;;;;;;;54.67;49.42;;;;;;;8.10;100.00;100354.16;4965312;28;20054;-84
2022/01/03 01:52:02;;;;;;;54.53;49.25;;;;;;;8.06;99.04;100356.81;4966271;28;20029;-82
2022/01/03 01:54:33;;;;;;;54.67;49.40;;;;;;;8.10;98.68;100366.97;4963799;28;20038;-84
2022/01/03 01:57:11;;;;;;;54.67;49.38;;;;;;;8.11;98.49;100368.66;4950806;28;20031;-85
2022/01/03 01:59:45;;;;;;;53.80;48.70;;;;;;;7.90;97.28;100364.88;4964604;28;20011;-81
2022/01/03 02:02:16;;;;;;;55.65;49.90;;;;;;;8.06;97.30;100395.25;4966257;28;20015;-80
2022/01/03 02:04:47;;;;;;;54.88;49.65;;;;;;;8.03;98.26;100401.28;4965569;28;20034;-83
2022/01/03 02:07:27;;;;;;;55.92;50.38;;;;;;;7.97;97.98;100404.00;4981000;28;20035;-83
2022/01/03 02:10:00;;;;;;;54.88;49.35;;;;;;;7.99;97.64;100407.38;4948586;28;20054;-85
2022/01/03 02:12:27;;;;;;;54.83;49.45;;;;;;;7.90;97.64;100418.66;4947833;29;20035;-82
2022/01/03 02:14:57;;;;;;;55.13;49.65;;;;;;;7.95;97.90;100423.66;4953485;28;20090;-86
2022/01/03 02:17:22;;;;;;;54.55;49.35;;;;;;;7.86;99.23;100418.75;4965597;28;20472;-86
2022/01/03 02:20:01;;;;;;;55.60;50.10;;;;;;;7.90;98.88;100435.75;4954736;28;20023;-86
2022/01/03 02:22:26;;;;;;;55.40;49.88;;;;;;;7.70;98.34;100436.16;4954000;28;20033;-85
2022/01/03 02:24:52;;;;;;;53.90;48.90;;;;;;;7.74;98.41;100446.31;4954242;28;20094;-86
2022/01/03 02:27:17;;;;;;;53.60;48.50;;;;;;;7.70;98.38;100442.16;4952160;28;20058;-85
2022/01/03 02:29:43;;;;;;;54.13;48.87;;;;;;;7.80;98.08;100466.66;4951143;29;20042;-84
2022/01/03 02:32:09;;;;;;;54.88;49.45;;;;;;;7.74;98.37;100461.66;4952293;29;20028;-86
2022/01/03 02:34:34;;;;;;;54.67;49.38;;;;;;;7.65;98.90;100469.53;4941713;28;20023;-86
2022/01/03 02:37:00;;;;;;;54.30;49.13;;;;;;;7.75;99.28;100476.16;4950268;29;20031;-86
2022/01/03 02:39:25;;;;;;;54.33;49.17;;;;;;;7.74;98.76;100474.47;4953145;28;20033;-85
2022/01/03 02:41:50;;;;;;;54.70;49.43;;;;;;;7.72;99.39;100476.22;4954946;28;20099;-84
2022/01/03 02:44:19;;;;;;;54.87;49.43;;;;;;;7.72;98.48;100481.34;4949805;29;20078;-85
2022/01/03 02:46:44;;;;;;;53.63;48.65;;;;;;;7.75;98.81;100481.28;4954696;28;20049;-85
2022/01/03 02:49:10;;;;;;;54.67;49.27;;;;;;;7.77;99.00;100488.94;4953178;28;20023;-85
2022/01/03 02:51:35;;;;;;;53.70;48.70;;;;;;;7.76;98.95;100488.09;4954067;28;20038;-86
2022/01/03 02:54:00;;;;;;;54.03;48.83;;;;;;;7.63;98.18;100492.63;4949096;28;20054;-85
2022/01/03 02:56:32;;;;;;;53.20;48.23;;;;;;;7.70;98.85;100495.91;4949066;28;20053;-86
2022/01/03 02:58:58;;;;;;;54.35;49.10;;;;;;;7.68;98.96;100484.00;4949287;28;20038;-85
2022/01/03 03:01:24;;;;;;;54.30;49.10;;;;;;;7.65;98.34;100481.50;4949716;28;20091;-87
2022/01/03 03:03:50;;;;;;;55.33;49.67;;;;;;;7.75;97.82;100496.66;4947529;28;20062;-85
2022/01/03 03:06:16;;;;;;;54.38;49.25;;;;;;;7.64;98.00;100488.34;4948791;28;20027;-85
2022/01/03 03:08:42;;;;;;;54.87;48.97;;;;;;;7.68;97.66;100496.81;4945954;29;20027;-85
2022/01/03 03:11:07;;;;;;;54.53;49.22;;;;;;;7.69;97.94;100496.78;4958635;28;20093;-86
2022/01/03 03:13:32;;;;;;;54.67;49.23;;;;;;;7.57;98.00;100484.22;4949031;28;20035;-85
2022/01/03 03:15:59;;;;;;;54.93;49.27;;;;;;;7.67;98.27;100501.09;4965438;28;20038;-85
2022/01/03 03:18:25;;;;;;;54.70;49.05;;;;;;;7.65;97.74;100495.13;4946088;29;20020;-86
2022/01/03 03:20:50;;;;;;;54.40;49.10;;;;;;;7.63;97.69;100490.09;4957485;28;20061;-85
2022/01/03 03:23:15;;;;;;;55.97;50.10;;;;;;;7.63;97.77;100494.34;4949587;28;20033;-86
2022/01/03 03:25:41;;;;;;;54.70;49.27;;;;;;;7.41;98.90;100510.13;4948742;28;20101;-86
2022/01/03 03:28:09;;;;;;;56.00;49.60;;;;;;;7.63;99.10;100500.31;4945861;29;20027;-86
2022/01/03 03:30:49;;;;;;;55.83;49.53;;;;;;;7.64;99.39;100490.91;4930951;28;20039;-84
2022/01/03 03:33:21;;;;;;;54.50;49.38;;;;;;;7.65;99.06;100505.38;4949629;28;20037;-85
2022/01/03 03:35:50;;;;;;;55.83;50.08;;;;;;;7.52;99.65;100503.94;4964224;28;20023;-85
2022/01/03 03:38:15;;;;;;;55.65;49.70;;;;;;;7.50;98.80;100505.72;4945576;29;20514;-85
2022/01/03 03:40:45;;;;;;;55.90;50.33;;;;;;;7.44;98.35;100497.28;4931584;28;20053;-86
2022/01/03 03:43:10;;;;;;;55.13;49.75;;;;;;;7.48;99.30;100502.31;4949385;28;20037;-85
2022/01/03 03:45:35;;;;;;;55.97;50.17;;;;;;;7.49;99.10;100493.78;4948785;28;20031;-85
2022/01/03 03:48:01;;;;;;;58.10;52.20;;;;;;;7.39;99.51;100499.06;4948734;28;20034;-84
2022/01/03 03:50:26;;;;;;;55.93;50.13;;;;;;;7.42;99.65;100516.91;4945490;29;20063;-85
2022/01/03 03:52:55;;;;;;;56.37;50.20;;;;;;;7.58;98.56;100509.78;4945421;29;20035;-84
2022/01/03 03:55:20;;;;;;;55.35;49.67;;;;;;;7.60;98.77;100502.06;4945730;29;20107;-86
2022/01/03 03:57:46;;;;;;;55.20;49.73;;;;;;;7.54;98.38;100489.41;4972785;28;20034;-82
2022/01/03 04:00:15;;;;;;;56.70;50.73;;;;;;;7.63;98.39;100502.03;4964623;28;20281;-84
2022/01/03 04:02:40;;;;;;;55.67;49.85;;;;;;;7.65;98.98;100507.94;4960391;29;20098;-84
2022/01/03 04:05:06;;;;;;;54.50;48.87;;;;;;;7.70;98.78;100506.16;4962742;28;20022;-84
2022/01/03 04:07:32;;;;;;;54.75;49.30;;;;;;;7.65;98.74;100492.59;4964569;28;20038;-86
2022/01/03 04:09:57;;;;;;;55.50;50.00;;;;;;;7.72;98.09;100493.31;4964625;28;20094;-84
2022/01/03 04:12:22;;;;;;;56.90;51.10;;;;;;;7.61;98.35;100493.53;4967192;28;20094;-84
2022/01/03 04:14:48;;;;;;;55.37;49.57;;;;;;;7.76;98.25;100503.47;4967010;28;20058;-85
2022/01/03 04:17:14;;;;;;;55.40;49.47;;;;;;;7.65;97.93;100494.31;4967585;28;20039;-83
2022/01/03 04:19:39;;;;;;;58.72;52.47;;;;;;;7.78;97.74;100511.97;4967140;28;20019;-83
2022/01/03 04:22:05;;;;;;;55.40;49.70;;;;;;;7.78;97.91;100506.84;4964006;29;20087;-86
2022/01/03 04:24:30;;;;;;;57.33;50.47;;;;;;;7.78;98.09;100498.31;4966456;28;20015;-83
2022/01/03 04:26:56;;;;;;;57.27;51.13;;;;;;;7.85;98.38;100494.75;4969354;28;20035;-83
2022/01/03 04:29:21;;;;;;;56.20;50.13;;;;;;;7.72;98.46;100496.72;4980640;28;20030;-85
2022/01/03 04:31:46;;;;;;;55.77;50.00;;;;;;;7.69;98.90;100483.16;4962708;28;20033;-85
2022/01/03 04:34:13;;;;;;;59.07;50.90;;;;;;;7.75;98.95;100503.50;4959679;28;20034;-86
2022/01/03 04:36:39;;;;;;;56.13;50.33;;;;;;;7.72;98.95;100506.97;4959443;28;20023;-84
2022/01/03 04:39:05;;;;;;;54.67;49.40;;;;;;;7.77;98.57;100489.78;4957414;28;20031;-86
2022/01/03 04:41:31;;;;;;;55.65;49.90;;;;;;;7.80;98.60;100501.69;4972144;28;20396;-86
2022/01/03 04:43:56;;;;;;;56.77;50.77;;;;;;;7.61;99.02;100488.41;4950625;29;20038;-84
2022/01/03 04:46:21;;;;;;;58.10;50.93;;;;;;;7.53;99.95;100500.53;4944040;29;20292;-86
2022/01/03 04:48:47;;;;;;;56.03;50.03;;;;;;;7.66;99.41;100491.72;4946945;29;20031;-84
2022/01/03 04:51:12;;;;;;;60.17;50.23;;;;;;;7.72;98.50;100498.44;4930188;29;20028;-85
2022/01/03 04:53:40;;;;;;;55.67;50.33;;;;;;;7.53;98.98;100483.44;4946144;29;20031;-85
2022/01/03 04:56:07;;;;;;;56.88;50.30;;;;;;;7.63;100.00;100504.56;4930091;29;20035;-85
2022/01/03 04:58:33;;;;;;;58.28;50.65;;;;;;;7.61;100.00;100493.53;4962081;28;20030;-85
2022/01/03 05:00:58;;;;;;;62.57;51.63;;;;;;;7.38;100.00;100497.41;4949141;28;20030;-85
2022/01/03 05:03:23;;;;;;;56.33;50.37;;;;;;;7.43;100.00;100480.22;4944853;29;20023;-86
2022/01/03 05:05:48;;;;;;;56.67;50.63;;;;;;;7.43;100.00;100490.47;4940621;28;20041;-85
2022/01/03 05:08:14;;;;;;;57.30;50.93;;;;;;;7.45;100.00;100498.13;4964820;28;20031;-86
2022/01/03 05:10:39;;;;;;;57.13;50.93;;;;;;;7.58;100.00;100489.31;4948987;28;20507;-84
2022/01/03 05:13:05;;;;;;;56.03;50.07;;;;;;;7.54;100.00;100486.84;4964019;28;20034;-85
2022/01/03 05:15:30;;;;;;;58.67;52.40;;;;;;;7.48;100.00;100487.81;4949017;28;20023;-85
2022/01/03 05:17:55;;;;;;;56.13;50.13;;;;;;;7.58;100.00;100498.72;4944721;29;20046;-84
2022/01/03 05:20:21;;;;;;;56.50;50.80;;;;;;;7.67;100.00;100498.53;4950676;28;20026;-83
2022/01/03 05:22:46;;;;;;;61.77;52.53;;;;;;;7.48;100.00;100482.69;4964378;28;20106;-84
2022/01/03 05:25:11;;;;;;;57.37;50.60;;;;;;;7.54;100.00;100491.97;4965083;28;20038;-84
2022/01/03 05:27:40;;;;;;;55.77;49.83;;;;;;;7.51;100.00;100492.88;4963570;28;20029;-85
2022/01/03 05:30:07;;;;;;;61.15;52.10;;;;;;;7.43;100.00;100474.28;4959170;28;20023;-83
2022/01/03 05:32:32;;;;;;;57.42;51.03;;;;;;;7.48;100.00;100494.63;4956035;29;20023;-84
2022/01/03 05:34:57;;;;;;;66.93;50.47;;;;;;;7.43;100.00;100497.31;4959293;28;20019;-84
2022/01/03 05:37:23;;;;;;;63.90;51.47;;;;;;;7.36;100.00;100477.81;4953749;28;20046;-86
2022/01/03 05:39:48;;;;;;;64.43;52.37;;;;;;;7.58;100.00;100497.00;4956067;28;20058;-84
2022/01/03 05:42:14;;;;;;;60.03;51.23;;;;;;;7.53;100.00;100491.13;4946198;29;20078;-86
2022/01/03 05:44:39;;;;;;;58.58;50.40;;;;;;;7.59;100.00;100490.19;4949986;28;20035;-86
2022/01/03 05:47:05;;;;;;;56.80;50.60;;;;;;;7.63;100.00;100491.78;4950638;28;20053;-87
2022/01/03 05:49:30;;;;;;;56.30;49.73;;;;;;;7.65;100.00;100495.13;4951322;28;20033;-87
2022/01/03 05:51:55;;;;;;;55.33;49.40;;;;;;;7.70;100.00;100495.91;4946312;29;20035;-86
2022/01/03 05:54:21;;;;;;;58.33;51.27;;;;;;;7.58;100.00;100496.16;4939064;29;20035;-84
2022/01/03 05:56:46;;;;;;;56.37;50.00;;;;;;;7.66;100.00;100496.84;4964959;28;20018;-83
2022/01/03 05:59:11;;;;;;;56.53;50.37;;;;;;;7.65;100.00;100502.00;4966346;28;20027;-82
2022/01/03 06:01:37;;;;;;;66.97;50.30;;;;;;;7.67;100.00;100495.97;4966116;28;20058;-82
2022/01/03 06:04:14;;;;;;;56.65;50.08;;;;;;;7.74;100.00;100510.31;4959092;29;20027;-85
2022/01/03 06:06:53;;;;;;;56.60;50.55;;;;;;;7.70;100.00;100516.41;4958595;28;20035;-85
2022/01/03 06:09:19;;;;;;;57.33;49.78;;;;;;;7.58;100.00;100494.44;4966499;28;20011;-84
2022/01/03 06:11:44;;;;;;;62.00;50.23;;;;;;;7.61;100.00;100499.50;4961601;29;20034;-83
2022/01/03 06:14:09;;;;;;;62.70;52.10;;;;;;;7.58;100.00;100503.84;4962392;28;20014;-84
2022/01/03 06:16:35;;;;;;;59.70;51.90;;;;;;;7.62;100.00;100510.59;4962038;29;20102;-82
2022/01/03 06:19:00;;;;;;;58.73;51.13;;;;;;;7.56;100.00;100505.59;4963997;28;20053;-84
2022/01/03 06:21:25;;;;;;;64.33;51.03;;;;;;;7.70;100.00;100513.84;4950308;28;20031;-84
2022/01/03 06:23:51;;;;;;;56.67;50.53;;;;;;;7.80;100.00;100522.16;4947689;28;20563;-84
2022/01/03 06:26:16;;;;;;;62.73;51.73;;;;;;;7.66;100.00;100522.44;4954081;28;20058;-84
2022/01/03 06:28:41;;;;;;;57.20;51.07;;;;;;;7.70;100.00;100513.84;4956348;28;20038;-85
2022/01/03 06:31:07;;;;;;;70.43;52.57;;;;;;;7.65;100.00;100507.94;4951536;29;20030;-85
2022/01/03 06:33:32;;;;;;;57.43;51.33;;;;;;;7.70;100.00;100521.50;4949450;29;20023;-86
2022/01/03 06:35:57;;;;;;;69.03;52.10;;;;;;;7.76;100.00;100516.28;4933198;29;20031;-86
2022/01/03 06:38:23;;;;;;;60.87;51.07;;;;;;;7.74;100.00;100522.28;4948016;28;20026;-84
2022/01/03 06:40:48;;;;;;;58.30;49.47;;;;;;;7.70;100.00;100518.97;4950199;29;20023;-86
2022/01/03 06:43:13;;;;;;;56.50;50.17;;;;;;;7.73;100.00;100521.47;4949676;28;20037;-86
2022/01/03 06:45:38;;;;;;;55.40;49.40;;;;;;;7.76;100.00;100518.84;4951828;28;20166;-85
2022/01/03 06:48:04;;;;;;;58.63;49.57;;;;;;;7.84;99.44;100515.25;4947347;29;20062;-85
2022/01/03 06:50:31;;;;;;;59.85;50.88;;;;;;;7.67;100.00;100513.91;4949215;29;20063;-85
2022/01/03 06:52:57;;;;;;;59.80;51.33;;;;;;;7.71;99.70;100520.63;4952429;28;20034;-85
2022/01/03 06:55:23;;;;;;;59.92;50.50;;;;;;;7.72;100.00;100518.94;4952385;28;20027;-86
2022/01/03 06:57:48;;;;;;;64.65;51.83;;;;;;;7.72;99.84;100521.50;4953124;28;20055;-85
2022/01/03 07:00:14;;;;;;;59.50;50.77;;;;;;;7.73;99.37;100525.72;4952666;28;20097;-85
2022/01/03 07:02:42;;;;;;;61.63;52.03;;;;;;;7.66;99.94;100522.44;4952058;28;20031;-84
2022/01/03 07:05:11;;;;;;;64.93;51.72;;;;;;;7.68;99.25;100523.25;4955606;28;20103;-86
2022/01/03 07:07:37;;;;;;;58.70;49.95;;;;;;;7.73;99.71;100534.25;4953582;28;20560;-85
2022/01/03 07:10:03;;;;;;;58.07;50.47;;;;;;;7.79;100.00;100530.72;4955055;28;20033;-85
2022/01/03 07:12:28;;;;;;;57.13;50.38;;;;;;;7.67;99.06;100521.56;4952251;28;20019;-84
2022/01/03 07:20:06;;;;;;;61.15;50.60;;;;;;;7.84;98.03;100535.75;4985858;28;20022;-83
2022/01/03 07:22:36;;;;;;;57.78;50.78;;;;;;;7.71;98.54;100520.63;4966871;28;20042;-83
2022/01/03 07:25:02;;;;;;;55.88;50.05;;;;;;;7.67;98.78;100513.91;4963300;28;20023;-84
2022/01/03 07:27:28;;;;;;;65.47;50.15;;;;;;;7.74;98.63;100528.25;4958914;28;20023;-84
2022/01/03 07:29:54;;;;;;;61.97;52.40;;;;;;;7.67;97.82;100529.25;4958968;28;20046;-85
2022/01/03 07:32:19;;;;;;;60.83;50.03;;;;;;;7.78;98.08;100532.44;4950770;28;20027;-85
2022/01/03 07:34:48;;;;;;;63.63;51.80;;;;;;;7.75;98.34;100539.34;4951561;28;20417;-84
2022/01/03 07:37:13;;;;;;;60.05;51.17;;;;;;;7.78;97.94;100541.84;4951693;28;20062;-83
2022/01/03 07:39:38;;;;;;;60.60;50.53;;;;;;;7.80;98.10;100535.81;4953077;28;20030;-85
2022/01/03 07:42:04;;;;;;;62.07;50.57;;;;;;;7.79;98.52;100543.50;4951595;28;20030;-85
2022/01/03 07:44:30;;;;;;;59.30;51.33;;;;;;;7.79;97.68;100544.38;4955308;28;20035;-86
2022/01/03 07:46:55;;;;;;;59.58;49.40;;;;;;;7.87;98.28;100533.13;4954996;28;20034;-85
2022/01/03 07:49:21;;;;;;;56.20;49.73;;;;;;;7.86;97.26;100539.09;4954631;28;20034;-85
2022/01/03 07:51:47;;;;;;;60.15;49.58;;;;;;;7.88;98.19;100547.63;4955013;28;20026;-84
2022/01/03 07:54:13;;;;;;;62.00;50.58;;;;;;;7.85;97.62;100542.56;4958405;28;20031;-84
2022/01/03 07:56:38;;;;;;;64.87;50.67;;;;;;;7.73;97.60;100533.41;4963746;28;20023;-85
2022/01/03 07:59:05;;;;;;;65.07;50.97;;;;;;;7.69;98.53;100522.38;4955991;28;20378;-85
2022/01/03 08:01:31;;;;;;;58.95;50.90;;;;;;;7.61;98.18;100531.94;4954848;28;20027;-86
2022/01/03 08:03:56;;;;;;;64.65;50.83;;;;;;;7.71;99.44;100541.09;4959384;28;20162;-85
2022/01/03 08:06:22;;;;;;;56.17;49.53;;;;;;;7.64;99.10;100554.91;4973356;28;20476;-86
2022/01/03 08:08:47;;;;;;;56.43;50.67;;;;;;;7.64;99.35;100544.66;4960879;28;20029;-85
2022/01/03 08:11:12;;;;;;;61.17;50.10;;;;;;;7.60;99.56;100525.13;4960173;28;20034;-85
2022/01/03 08:13:38;;;;;;;60.50;50.50;;;;;;;7.61;99.26;100555.81;4964428;28;20039;-85
2022/01/03 08:16:03;;;;;;;66.00;50.67;;;;;;;7.54;98.59;100541.44;4964998;28;20031;-83
2022/01/03 08:18:31;;;;;;;64.05;50.45;;;;;;;7.65;98.33;100548.06;4960754;28;20078;-84
2022/01/03 08:20:56;;;;;;;60.75;50.75;;;;;;;7.53;99.38;100546.59;4962099;28;20098;-84
2022/01/03 08:23:22;;;;;;;62.50;50.85;;;;;;;7.61;99.67;100550.69;4967778;28;20011;-82
2022/01/03 08:25:47;;;;;;;66.03;52.43;;;;;;;7.61;98.08;100554.97;4967064;28;20029;-82
2022/01/03 08:28:14;;;;;;;68.10;52.93;;;;;;;7.69;98.74;100547.97;4965873;28;20010;-81
2022/01/03 08:30:49;;;;;;;64.82;50.83;;;;;;;7.67;97.55;100541.19;4964292;28;20023;-84
2022/01/03 08:33:43;;;;;;;56.05;50.03;;;;;;;7.69;98.10;100558.22;4967491;28;20015;-84
2022/01/03 08:36:12;;;;;;;72.88;54.05;;;;;;;7.65;97.82;100546.34;4954910;28;20110;-82
2022/01/03 08:38:37;;;;;;;75.32;54.22;;;;;;;7.65;97.41;100545.50;4964962;28;20410;-77
2022/01/03 08:41:05;;;;;;;84.67;56.33;;;;;;;7.69;97.16;100542.03;4955125;28;20019;-81
2022/01/03 08:43:33;;;;;;;62.63;51.22;;;;;;;7.72;96.51;100553.03;4954538;28;20026;-80
2022/01/03 08:45:58;;;;;;;89.40;56.13;;;;;;;7.72;96.59;100545.38;4961570;28;20054;-83
2022/01/03 08:54:01;;;;;;;64.28;52.28;;;;;;;7.82;96.33;100564.78;5222829;23;20111;-89
2022/01/03 08:56:28;;;;;;;56.73;50.50;;;;;;;7.51;95.87;100512.50;5097624;23;20099;-90
2022/01/03 09:01:32;;;;;;;58.83;51.58;;;;;;;7.81;97.04;100539.22;5145457;23;20035;-90
2022/01/03 09:03:57;;;;;;;60.22;50.92;;;;;;;7.88;96.78;100557.88;4947488;28;20034;-89
2022/01/03 09:06:23;;;;;;;68.93;53.25;;;;;;;7.63;96.14;100527.63;4949369;29;20019;-90
2022/01/03 09:08:49;;;;;;;64.30;52.00;;;;;;;7.68;96.64;100515.56;4964888;29;20039;-90
2022/01/03 09:11:15;;;;;;;61.78;50.47;;;;;;;7.85;97.43;100548.50;4965980;28;20045;-89
2022/01/03 09:13:41;;;;;;;60.10;53.20;;;;;;;7.91;97.74;100557.81;4964731;28;20015;-87
2022/01/03 09:16:07;;;;;;;65.20;51.45;;;;;;;7.86;97.49;100539.97;4958233;28;20059;-89
2022/01/03 09:18:36;;;;;;;;;;;;;;;8.09;96.26;100562.53;4958969;28;20019;-89
2022/01/03 09:21:02;;;;;;;73.07;54.13;;;;;;;7.64;97.33;100508.84;4965940;28;19925;-87
2022/01/03 09:24:05;;;;;;;64.53;51.80;;;;;;;8.04;98.03;100559.22;4964972;28;20034;-90
2022/01/03 09:29:27;;;;;;;74.13;55.00;;;;;;;7.60;97.25;100499.50;4980605;28;20038;-89
2022/01/03 09:31:53;;;;;;;68.13;51.72;;;;;;;7.88;97.54;100560.44;4960018;28;20037;-89
2022/01/03 09:34:31;;;;;;;;;;;;;;;;;;;;;
2022/01/03 09:37:03;;;;;;;68.82;53.92;;;;;;;7.75;97.18;100547.88;4982247;28;20070;-88
2022/01/03 09:39:29;;;;;;;78.40;52.58;;;;;;;7.82;98.32;100549.41;4964661;28;20028;-88
2022/01/03 09:42:14;;;;;;;63.60;51.65;;;;;;;7.74;99.04;100547.91;4953451;28;20023;-89
2022/01/03 09:44:42;;;;;;;68.40;52.70;;;;;;;7.74;100.00;100546.16;4957423;28;20046;-90
2022/01/03 09:47:09;;;;;;;66.07;53.15;;;;;;;7.65;99.72;100536.09;4963691;28;20037;-86
2022/01/03 09:49:38;;;;;;;61.50;50.63;;;;;;;7.47;99.87;100503.19;4969470;28;20014;-88
2022/01/03 09:52:05;;;;;;;61.88;50.28;;;;;;;7.70;98.76;100543.69;4976318;28;20089;-88
2022/01/03 09:54:31;;;;;;;63.85;52.92;;;;;;;7.67;99.16;100544.63;4975220;28;20089;-85
2022/01/03 09:57:00;;;;;;;60.60;51.08;;;;;;;7.74;100.00;100551.28;4952863;28;20031;-88
2022/01/03 10:00:04;;;;;;;70.80;54.55;;;;;;;7.88;99.65;100542.50;4935097;29;20034;-92
2022/01/03 10:02:30;;;;;;;58.45;50.58;;;;;;;7.68;99.22;100518.13;4977138;28;20066;-88
2022/01/03 10:04:55;;;;;;;58.97;52.00;;;;;;;7.73;99.19;100513.78;4983951;28;20037;-89
2022/01/03 10:07:21;;;;;;;60.60;50.93;;;;;;;7.56;98.53;100498.75;4985444;28;20026;-89
2022/01/03 10:09:47;;;;;;;59.70;51.05;;;;;;;7.86;99.52;100544.22;4985069;28;20130;-88
2022/01/03 10:12:16;;;;;;;58.30;52.00;;;;;;;7.70;99.01;100515.53;4972501;28;20029;-88
2022/01/03 10:14:42;;;;;;;70.13;51.90;;;;;;;7.82;99.17;100539.16;4965231;28;20383;-85
2022/01/03 10:17:09;;;;;;;68.05;51.85;;;;;;;7.86;99.84;100529.72;4964522;28;20034;-84
2022/01/03 10:19:57;;;;;;;64.47;50.75;;;;;;;8.08;98.64;100537.81;4963948;28;20062;-82
2022/01/03 10:22:29;;;;;;;66.10;51.60;;;;;;;8.08;97.75;100534.38;4964709;28;20045;-84
2022/01/03 10:24:55;;;;;;;59.67;52.38;;;;;;;7.97;98.32;100522.66;4979942;28;20014;-83
2022/01/03 10:27:24;;;;;;;;;;;;;;;8.11;98.16;100524.94;4978144;28;20029;-81
2022/01/03 10:29:57;;;;;;;61.33;51.95;;;;;;;8.02;96.50;100535.38;4974390;28;20356;-83
2022/01/03 10:32:30;;;;;;;59.95;51.78;;;;;;;8.07;96.20;100522.47;4954014;29;20035;-82
2022/01/03 10:34:57;;;;;;;57.60;51.50;;;;;;;8.08;96.35;100519.88;4984951;28;20031;-83
2022/01/03 10:37:38;;;;;;;58.80;51.72;;;;;;;8.07;96.93;100528.44;4971137;28;20085;-83
2022/01/03 10:41:12;;;;;;;;;;;;;;;;;;;;;
2022/01/03 10:43:38;;;;;;;66.72;52.17;;;;;;;7.93;95.45;100494.59;4983355;28;20107;-88
2022/01/03 10:46:27;;;;;;;62.63;51.20;;;;;;;8.03;95.57;100519.09;4952832;28;20034;-86
2022/01/03 10:48:57;;;;;;;66.07;52.85;;;;;;;7.82;95.93;100495.63;4953702;28;20066;-85
2022/01/03 10:51:25;;;;;;;61.60;51.72;;;;;;;7.97;95.13;100502.16;4950877;28;20027;-85
2022/01/03 10:53:53;;;;;;;61.05;52.08;;;;;;;8.14;94.53;100517.19;4948892;28;20123;-83
2022/01/03 10:56:24;;;;;;;64.13;51.90;;;;;;;8.18;95.04;100510.25;4962991;28;20084;-83
2022/01/03 10:58:50;;;;;;;69.65;52.97;;;;;;;8.13;95.12;100499.28;4961420;28;20030;-82
2022/01/03 11:01:23;;;;;;;;;;;;;;;8.30;94.24;100524.50;4948406;28;20037;-85
2022/01/03 11:03:50;;;;;;;59.65;50.35;;;;;;;8.29;95.77;100513.44;4976844;28;19917;-83
2022/01/03 11:11:40;;;;;;;60.28;50.67;;;;;;;8.22;94.66;100495.66;4962654;28;20043;-82
2022/01/03 11:14:07;;;;;;;61.35;51.03;;;;;;;8.23;94.64;100497.34;4948401;28;20026;-83
2022/01/03 11:16:39;;;;;;;56.67;50.55;;;;;;;8.29;95.15;100498.03;4961251;28;20068;-81
2022/01/03 11:19:05;;;;;;;63.03;51.22;;;;;;;8.33;94.55;100503.94;4941303;28;20106;-82
2022/01/03 11:21:33;;;;;;;71.20;53.28;;;;;;;8.49;93.88;100487.34;4950519;28;20031;-83
2022/01/03 11:24:04;;;;;;;62.78;51.58;;;;;;;8.41;93.51;100493.50;4954761;28;20023;-84
2022/01/03 11:26:33;;;;;;;64.57;53.08;;;;;;;8.45;91.98;100478.06;4961992;29;20034;-81
2022/01/03 11:29:00;;;;;;;67.00;51.95;;;;;;;8.34;93.02;100469.75;4949693;28;20027;-84
2022/01/03 11:31:25;;;;;;;62.95;50.72;;;;;;;8.36;93.05;100468.00;4950075;28;20023;-84
2022/01/03 11:33:52;;;;;;;65.87;50.37;;;;;;;8.42;93.13;100482.41;4946197;29;20091;-82
2022/01/03 11:36:19;;;;;;;58.33;52.20;;;;;;;8.55;92.28;100472.72;4936775;29;20031;-84
2022/01/03 11:38:45;;;;;;;58.70;50.75;;;;;;;8.63;91.41;100465.66;4937075;29;20497;-85
2022/01/03 11:41:11;;;;;;;;;;;;;;;8.74;90.74;100471.38;4937472;29;20046;-84
2022/01/03 11:43:39;;;;;;;55.25;49.30;;;;;;;8.60;91.01;100458.88;4972985;28;19918;-84
2022/01/03 11:46:05;;;;;;;57.13;51.40;;;;;;;8.60;90.42;100442.66;4956405;28;20027;-84